Terminal Aerodrome Forecast
Issued by NWS

Current Version | Previous Version | Text Only | Print | Product List | Glossary On
Versions: 1 2 3 4 5 6 7 8 9 10 11 12 13 14 15 16
000
FTUS44 KBMX 241720
TAFTOI
TAF
KTOI 241720Z 2418/2518 18009KT P6SM SCT035
     FM250500 21005KT P6SM BKN015
     FM251000 26010G20KT 4SM TSRA BKN040CB
     FM251300 30010KT P6SM SCT050=

USA.gov is the U.S. government's official web portal to all federal, state and local government web resources and services.